createdAt,value
2023-04-07T00:00:24.757Z,54.2351
2023-04-07T00:01:26.650Z,56.2348
2023-04-07T00:02:28.949Z,56.0870
2023-04-07T00:03:31.276Z,56.1064
2023-04-07T00:04:31.320Z,55.8917
2023-04-07T00:05:33.220Z,55.9143
2023-04-07T00:06:35.311Z,56.0173
2023-04-07T00:07:55.208Z,56.3334
2023-04-07T00:08:39.553Z,56.2875
2023-04-07T00:09:41.443Z,56.4202
2023-04-07T00:10:43.346Z,55.1869
2023-04-07T00:11:45.211Z,55.5546
2023-04-07T00:12:47.162Z,55.4771
2023-04-07T00:13:49.042Z,55.6185
2023-04-07T00:14:50.989Z,55.4807
2023-04-07T00:15:52.978Z,56.0952
2023-04-07T00:16:54.790Z,56.8087
2023-04-07T00:17:56.961Z,57.4257
2023-04-07T00:18:58.919Z,56.3825
2023-04-07T00:20:00.839Z,56.6091
2023-04-07T00:21:02.741Z,55.5336
2023-04-07T00:22:04.634Z,54.6428
2023-04-07T00:23:06.519Z,54.9562
2023-04-07T00:24:08.438Z,55.0446
2023-04-07T00:25:10.444Z,56.5263
2023-04-07T00:26:12.320Z,58.4016
2023-04-07T00:27:14.320Z,56.1659
2023-04-07T00:28:16.233Z,55.6464
2023-04-07T00:29:18.137Z,55.8107
2023-04-07T00:30:20.020Z,55.9465
2023-04-07T00:31:22.032Z,56.3793
2023-04-07T00:32:23.982Z,56.6723
2023-04-07T00:33:25.861Z,57.1133
2023-04-07T00:34:27.766Z,60.3570
2023-04-07T00:35:29.683Z,61.5691
2023-04-07T00:36:31.539Z,61.1724
2023-04-07T00:37:33.437Z,60.6898
2023-04-07T00:38:35.309Z,60.1653
2023-04-07T00:39:37.255Z,61.1001
2023-04-07T00:40:39.203Z,60.0259
2023-04-07T00:41:41.076Z,60.1448
2023-04-07T00:42:43.084Z,59.6047
2023-04-07T00:43:45.006Z,56.9728
2023-04-07T00:44:46.910Z,57.1507
2023-04-07T00:45:48.806Z,57.6830
2023-04-07T00:46:50.820Z,57.1874
2023-04-07T00:47:52.809Z,57.5775
2023-04-07T00:48:54.692Z,56.7237
2023-04-07T00:49:56.643Z,56.6424
2023-04-07T00:50:58.539Z,57.0207
2023-04-07T00:52:00.515Z,57.4977
2023-04-07T00:53:02.916Z,57.2000
2023-04-07T00:54:02.709Z,58.3739
2023-04-07T00:55:04.650Z,58.2407
2023-04-07T00:56:06.581Z,57.5298
2023-04-07T00:57:08.653Z,57.9438
2023-04-07T00:58:10.649Z,58.6115
2023-04-07T00:59:12.590Z,58.8951
2023-04-07T01:00:14.498Z,59.0995
2023-04-07T01:01:16.451Z,59.4273
2023-04-07T01:02:18.574Z,59.4700
2023-04-07T01:03:21.769Z,59.5999
2023-04-07T01:04:21.743Z,59.5111
2023-04-07T01:05:23.786Z,59.9602
2023-04-07T01:06:25.709Z,59.1861
2023-04-07T01:07:27.652Z,59.1548
2023-04-07T01:08:29.597Z,58.0760
2023-04-07T01:09:31.506Z,58.3028
2023-04-07T01:10:33.388Z,58.9655
2023-04-07T01:11:35.393Z,58.8904
2023-04-07T01:12:37.388Z,58.0796
2023-04-07T01:13:39.257Z,58.0941
2023-04-07T01:14:41.157Z,57.7799
2023-04-07T01:15:43.096Z,57.8571
2023-04-07T01:16:45.076Z,58.0385
2023-04-07T01:17:47.074Z,57.9833
2023-04-07T01:18:49.077Z,58.2142
2023-04-07T01:19:50.998Z,57.9082
2023-04-07T01:20:52.887Z,57.3847
2023-04-07T01:21:54.844Z,57.6256
2023-04-07T01:22:56.776Z,57.7240
2023-04-07T01:23:58.758Z,57.7613
2023-04-07T01:25:00.693Z,57.5545
2023-04-07T01:26:02.683Z,56.6141
2023-04-07T01:27:04.613Z,56.7424
2023-04-07T01:28:06.528Z,56.1380
2023-04-07T01:29:08.485Z,56.5368
2023-04-07T01:30:10.385Z,56.6540
2023-04-07T01:31:12.327Z,56.8226
2023-04-07T01:32:14.225Z,56.7671
2023-04-07T01:33:16.209Z,57.1164
2023-04-07T01:34:18.089Z,56.6038
2023-04-07T01:35:19.984Z,56.5495
2023-04-07T01:36:21.881Z,57.0825
2023-04-07T01:37:23.942Z,57.2622
2023-04-07T01:38:25.912Z,56.8162
2023-04-07T01:39:28.037Z,57.0969
2023-04-07T01:40:30.018Z,56.8908
2023-04-07T01:41:31.908Z,57.2963
2023-04-07T01:42:33.851Z,57.6129
2023-04-07T01:43:35.786Z,57.8510
2023-04-07T01:44:37.799Z,57.4710
2023-04-07T01:45:45.198Z,57.3262
2023-04-07T01:46:40.421Z,56.9204
2023-04-07T01:47:42.417Z,57.0399
2023-04-07T01:48:44.344Z,57.0253
2023-04-07T01:49:46.290Z,56.7842
2023-04-07T01:50:48.189Z,56.8795
2023-04-07T01:51:50.123Z,57.3859
2023-04-07T01:52:52.020Z,57.8973
2023-04-07T01:53:54.659Z,57.9448
2023-04-07T01:54:54.618Z,57.7776
2023-04-07T01:55:56.516Z,57.7674
2023-04-07T01:56:58.412Z,57.5895
2023-04-07T01:58:00.331Z,57.8281
2023-04-07T01:59:02.234Z,57.7425
2023-04-07T02:00:04.162Z,57.9794
2023-04-07T02:01:06.201Z,57.9235
2023-04-07T02:02:08.248Z,58.1444
2023-04-07T02:03:10.810Z,58.4755
2023-04-07T02:04:10.726Z,58.5404
2023-04-07T02:05:12.640Z,58.8479
2023-04-07T02:06:14.636Z,58.4380
2023-04-07T02:07:16.554Z,58.7746
2023-04-07T02:08:18.506Z,58.7464
2023-04-07T02:09:20.394Z,58.7711
2023-04-07T02:10:22.304Z,58.7863
2023-04-07T02:11:24.214Z,58.8227
2023-04-07T02:12:26.101Z,59.3961
2023-04-07T02:13:28.029Z,59.9353
2023-04-07T02:14:29.997Z,60.6418
2023-04-07T02:15:31.946Z,60.7495
2023-04-07T02:16:33.991Z,60.9450
2023-04-07T02:17:35.962Z,60.0765
2023-04-07T02:18:37.888Z,60.2965
2023-04-07T02:19:39.805Z,60.1068
2023-04-07T02:20:41.808Z,60.7992
2023-04-07T02:21:43.807Z,60.6381
2023-04-07T02:22:45.722Z,59.9576
2023-04-07T02:23:47.657Z,59.7972
2023-04-07T02:24:49.604Z,59.9168
2023-04-07T02:25:51.610Z,60.2929
2023-04-07T02:26:53.578Z,60.9351
2023-04-07T02:27:55.627Z,60.5054
2023-04-07T02:28:57.532Z,60.2655
2023-04-07T02:29:59.504Z,60.6915
2023-04-07T02:31:01.432Z,60.8491
2023-04-07T02:32:03.517Z,60.7039
2023-04-07T02:33:05.713Z,60.7583
2023-04-07T02:34:07.780Z,60.5039
2023-04-07T02:35:09.730Z,59.8904
2023-04-07T02:36:11.673Z,59.7541
2023-04-07T02:37:13.672Z,59.9764
2023-04-07T02:38:15.596Z,59.9934
2023-04-07T02:39:17.542Z,60.1859
2023-04-07T02:40:19.485Z,59.9173
2023-04-07T02:41:21.397Z,60.6308
2023-04-07T02:42:23.485Z,60.3974
2023-04-07T02:43:25.485Z,59.9131
2023-04-07T02:44:27.451Z,59.9594
2023-04-07T02:45:29.391Z,59.9149
2023-04-07T02:46:31.491Z,59.7044
2023-04-07T02:47:33.483Z,59.3192
2023-04-07T02:48:35.428Z,59.6104
2023-04-07T02:49:37.327Z,59.1152
2023-04-07T02:50:39.268Z,58.8270
2023-04-07T02:51:41.208Z,59.1557
2023-04-07T02:52:43.088Z,59.2815
2023-04-07T02:53:45.087Z,59.4857
2023-04-07T02:54:46.998Z,59.8199
2023-04-07T02:55:48.989Z,59.2729
2023-04-07T02:56:50.956Z,59.8546
2023-04-07T02:57:52.920Z,59.9994
2023-04-07T02:58:54.989Z,60.2519
2023-04-07T02:59:56.964Z,59.8395
2023-04-07T03:00:58.973Z,60.4839
2023-04-07T03:02:01.232Z,60.4175
2023-04-07T03:03:03.608Z,60.2885
2023-04-07T03:04:06.447Z,60.3703
2023-04-07T03:05:06.226Z,60.0542
2023-04-07T03:06:08.223Z,59.9072
2023-04-07T03:07:10.232Z,59.6160
2023-04-07T03:08:13.506Z,60.2789
2023-04-07T03:09:13.255Z,60.2865
2023-04-07T03:10:15.328Z,60.6997
2023-04-07T03:11:17.315Z,60.4808
2023-04-07T03:12:19.310Z,60.4342
2023-04-07T03:13:21.371Z,60.5870
2023-04-07T03:14:23.384Z,61.1632
2023-04-07T03:15:25.499Z,60.7812
2023-04-07T03:16:27.592Z,60.7636
2023-04-07T03:17:29.681Z,60.8895
2023-04-07T03:18:31.609Z,60.7425
2023-04-07T03:19:33.604Z,61.6656
2023-04-07T03:20:35.618Z,61.2077
2023-04-07T03:21:37.635Z,61.1705
2023-04-07T03:22:39.724Z,60.8038
2023-04-07T03:23:41.806Z,60.8632
2023-04-07T03:24:43.807Z,60.6691
2023-04-07T03:25:48.891Z,60.7178
2023-04-07T03:26:46.280Z,60.8579
2023-04-07T03:27:48.277Z,60.9698
2023-04-07T03:28:50.313Z,61.1591
2023-04-07T03:29:52.273Z,61.5257
2023-04-07T03:30:54.347Z,61.7151
2023-04-07T03:31:56.291Z,61.4737
2023-04-07T03:32:58.333Z,61.7508
2023-04-07T03:34:00.261Z,61.7350
2023-04-07T03:35:02.271Z,61.6540
2023-04-07T03:36:04.415Z,62.0574
2023-04-07T03:37:06.375Z,62.0568
2023-04-07T03:38:08.766Z,62.3843
2023-04-07T03:39:10.730Z,62.3226
2023-04-07T03:40:12.721Z,62.3030
2023-04-07T03:41:14.732Z,62.3245
2023-04-07T03:42:16.764Z,62.6452
2023-04-07T03:43:18.811Z,62.7288
2023-04-07T03:44:20.805Z,62.8373
2023-04-07T03:45:22.820Z,63.2955
2023-04-07T03:46:24.960Z,63.5976
2023-04-07T03:47:27.032Z,63.6658
2023-04-07T03:48:29.690Z,63.3709
2023-04-07T03:49:29.395Z,63.3461
2023-04-07T03:50:31.349Z,62.8284
2023-04-07T03:51:33.372Z,62.7123
2023-04-07T03:52:35.354Z,63.2192
2023-04-07T03:53:37.362Z,62.8732
2023-04-07T03:54:39.361Z,62.5960
2023-04-07T03:55:41.341Z,62.8851
2023-04-07T03:56:43.307Z,62.9752
2023-04-07T03:57:45.325Z,63.2601
2023-04-07T03:58:47.281Z,64.2631
2023-04-07T03:59:49.318Z,63.4950
2023-04-07T04:00:51.271Z,63.8886
2023-04-07T04:01:53.301Z,65.2297
2023-04-07T04:02:55.662Z,66.8741
2023-04-07T04:03:59.176Z,67.7908
2023-04-07T04:04:59.702Z,68.4913
2023-04-07T04:06:01.666Z,67.9416
2023-04-07T04:07:03.686Z,67.1742
2023-04-07T04:08:05.673Z,66.3595
2023-04-07T04:09:07.678Z,66.1493
2023-04-07T04:10:09.657Z,65.9911
2023-04-07T04:11:11.741Z,64.9166
2023-04-07T04:12:13.712Z,64.1558
2023-04-07T04:13:15.713Z,63.8469
2023-04-07T04:14:17.780Z,64.2490
2023-04-07T04:15:19.845Z,64.7921
2023-04-07T04:16:21.905Z,65.4242
2023-04-07T04:17:24.115Z,65.8509
2023-04-07T04:18:26.186Z,65.9078
2023-04-07T04:19:28.169Z,66.0003
2023-04-07T04:20:30.209Z,65.6121
2023-04-07T04:21:32.192Z,64.8301
2023-04-07T04:22:34.150Z,64.8571
2023-04-07T04:23:36.151Z,64.4031
2023-04-07T04:24:38.112Z,64.0887
2023-04-07T04:25:40.136Z,63.9172
2023-04-07T04:26:42.135Z,63.3852
2023-04-07T04:27:44.192Z,62.9973
2023-04-07T04:28:46.394Z,62.2206
2023-04-07T04:29:48.631Z,61.8410
2023-04-07T04:30:50.669Z,61.8975
2023-04-07T04:31:52.595Z,62.6836
2023-04-07T04:32:54.770Z,62.2301
2023-04-07T04:33:56.737Z,61.6406
2023-04-07T04:34:58.813Z,61.5764
2023-04-07T04:36:00.901Z,62.1447
2023-04-07T04:37:03.058Z,62.8942
2023-04-07T04:38:05.116Z,63.7854
2023-04-07T04:39:07.119Z,63.8140
2023-04-07T04:40:09.129Z,63.7138
2023-04-07T04:41:11.134Z,65.4836
2023-04-07T04:42:13.275Z,65.0789
2023-04-07T04:43:15.270Z,64.9149
2023-04-07T04:44:17.362Z,64.9058
2023-04-07T04:45:19.380Z,65.0396
2023-04-07T04:46:21.379Z,65.2325
2023-04-07T04:47:23.645Z,65.6328
2023-04-07T04:48:25.817Z,65.5733
2023-04-07T04:49:27.909Z,65.6652
2023-04-07T04:50:29.929Z,65.2848
2023-04-07T04:51:31.984Z,65.8151
2023-04-07T04:52:33.991Z,66.0492
2023-04-07T04:53:36.010Z,66.0609
2023-04-07T04:54:37.956Z,65.6392
2023-04-07T04:55:40.021Z,66.1378
2023-04-07T04:56:42.116Z,66.4406
2023-04-07T04:57:44.121Z,67.0351
2023-04-07T04:58:46.103Z,67.2190
2023-04-07T04:59:48.124Z,67.8110
2023-04-07T05:00:50.196Z,68.5169
2023-04-07T05:01:52.378Z,68.9834
2023-04-07T05:02:55.917Z,68.7988
2023-04-07T05:03:56.879Z,68.8083
2023-04-07T05:04:56.921Z,68.8744
2023-04-07T05:05:58.906Z,68.9331
2023-04-07T05:07:00.992Z,68.8193
2023-04-07T05:08:03.031Z,68.8855
2023-04-07T05:09:05.069Z,69.2879
2023-04-07T05:10:07.079Z,69.4674
2023-04-07T05:11:09.064Z,69.4485
2023-04-07T05:12:11.146Z,69.4456
2023-04-07T05:13:13.141Z,69.7341
2023-04-07T05:14:15.173Z,70.0096
2023-04-07T05:15:17.349Z,70.5938
2023-04-07T05:16:19.364Z,70.2758
2023-04-07T05:17:21.517Z,69.6132
2023-04-07T05:18:23.545Z,69.4237
2023-04-07T05:19:25.598Z,69.5172
2023-04-07T05:20:27.570Z,69.3214
2023-04-07T05:21:29.674Z,69.2755
2023-04-07T05:22:30.108Z,69.1292
2023-04-07T05:23:32.101Z,68.7599
2023-04-07T05:24:34.082Z,68.9754
2023-04-07T05:25:36.148Z,69.4604
2023-04-07T05:26:38.214Z,69.5477
2023-04-07T05:27:40.223Z,70.2758
2023-04-07T05:28:42.347Z,70.2243
2023-04-07T05:29:44.360Z,69.8057
2023-04-07T05:30:46.418Z,69.6161
2023-04-07T05:31:48.476Z,69.3508
2023-04-07T05:32:50.651Z,69.7454
2023-04-07T05:33:53.597Z,69.4841
2023-04-07T05:34:53.415Z,69.4051
2023-04-07T05:35:55.483Z,69.7631
2023-04-07T05:36:57.522Z,69.7204
2023-04-07T05:37:59.592Z,69.6907
2023-04-07T05:39:01.607Z,69.1087
2023-04-07T05:40:03.654Z,68.8158
2023-04-07T05:41:05.662Z,68.5256
2023-04-07T05:42:07.727Z,68.4622
2023-04-07T05:43:09.684Z,67.9562
2023-04-07T05:44:11.741Z,67.8225
2023-04-07T05:45:13.750Z,67.8727
2023-04-07T05:46:15.991Z,67.9017
2023-04-07T05:47:18.080Z,68.0020
2023-04-07T05:48:20.092Z,67.7317
2023-04-07T05:49:22.102Z,67.3996
2023-04-07T05:50:24.150Z,67.0028
2023-04-07T05:51:26.151Z,67.2415
2023-04-07T05:52:28.201Z,67.1993
2023-04-07T05:53:30.185Z,66.8501
2023-04-07T05:54:32.187Z,67.0136
2023-04-07T05:55:34.198Z,67.2711
2023-04-07T05:56:36.290Z,67.4712
2023-04-07T05:57:38.290Z,67.8694
2023-04-07T05:58:40.437Z,67.9518
2023-04-07T05:59:42.427Z,67.6402
2023-04-07T06:00:44.479Z,68.3302
2023-04-07T06:01:46.759Z,68.4131
2023-04-07T06:02:49.538Z,68.1887
2023-04-07T06:03:51.143Z,68.5422
2023-04-07T06:04:51.336Z,69.1225
2023-04-07T06:05:53.329Z,68.4436
2023-04-07T06:06:55.569Z,68.7116
2023-04-07T06:07:57.685Z,69.0821
2023-04-07T06:08:59.801Z,68.7809
2023-04-07T06:10:01.835Z,69.6502
2023-04-07T06:11:03.857Z,70.1815
2023-04-07T06:12:05.936Z,70.7916
2023-04-07T06:13:07.955Z,70.5936
2023-04-07T06:14:10.032Z,70.1389
2023-04-07T06:15:12.053Z,69.7583
2023-04-07T06:16:14.081Z,69.5817
2023-04-07T06:17:16.213Z,69.6956
2023-04-07T06:18:18.214Z,68.6011
2023-04-07T06:19:20.294Z,68.2213
2023-04-07T06:20:22.289Z,67.9627
2023-04-07T06:21:24.363Z,67.9391
2023-04-07T06:22:26.389Z,67.8782
2023-04-07T06:23:28.456Z,67.6969
2023-04-07T06:24:30.420Z,67.2498
2023-04-07T06:25:32.440Z,66.3926
2023-04-07T06:26:34.426Z,66.8696
2023-04-07T06:27:36.432Z,67.1899
2023-04-07T06:28:38.412Z,67.5743
2023-04-07T06:29:40.362Z,68.0944
2023-04-07T06:30:42.404Z,68.0274
2023-04-07T06:31:44.444Z,67.5786
2023-04-07T06:32:46.697Z,67.1583
2023-04-07T06:33:49.299Z,66.6681
2023-04-07T06:34:49.272Z,65.7898
2023-04-07T06:35:51.322Z,66.1725
2023-04-07T06:36:53.437Z,65.8042
2023-04-07T06:37:55.458Z,65.2873
2023-04-07T06:38:57.610Z,65.2181
2023-04-07T06:39:59.697Z,65.2173
2023-04-07T06:41:01.786Z,65.2129
2023-04-07T06:42:03.802Z,64.8306
2023-04-07T06:43:05.805Z,64.6201
2023-04-07T06:44:09.951Z,64.3228
2023-04-07T06:45:09.731Z,64.7641
2023-04-07T06:46:11.861Z,65.0055
2023-04-07T06:47:13.920Z,65.1915
2023-04-07T06:48:15.927Z,65.0256
2023-04-07T06:49:17.980Z,65.2801
2023-04-07T06:50:20.062Z,65.6895
2023-04-07T06:51:22.177Z,65.8964
2023-04-07T06:52:24.294Z,65.1270
2023-04-07T06:53:26.318Z,64.9374
2023-04-07T06:54:29.439Z,64.6239
2023-04-07T06:55:29.196Z,64.3813
2023-04-07T06:56:31.249Z,64.2663
2023-04-07T06:57:33.373Z,63.1814
2023-04-07T06:58:35.489Z,63.0301
2023-04-07T06:59:37.531Z,63.2428
2023-04-07T07:00:39.600Z,62.7874
2023-04-07T07:01:41.863Z,62.1857
2023-04-07T07:02:44.237Z,62.3888
2023-04-07T07:03:46.749Z,62.4767
2023-04-07T07:04:46.821Z,63.1510
2023-04-07T07:05:51.022Z,63.1447
2023-04-07T07:06:50.938Z,62.6788
2023-04-07T07:07:52.999Z,62.8321
2023-04-07T07:08:55.330Z,61.9048
2023-04-07T07:09:55.284Z,62.5596
2023-04-07T07:10:57.378Z,62.6618
2023-04-07T07:11:59.361Z,65.8690
2023-04-07T07:13:01.390Z,66.3645
2023-04-07T07:14:03.460Z,66.3981
2023-04-07T07:15:05.509Z,66.7316
2023-04-07T07:16:07.659Z,66.9279
2023-04-07T07:17:09.803Z,66.9312
2023-04-07T07:18:11.811Z,66.9573
2023-04-07T07:19:13.940Z,67.2850
2023-04-07T07:20:16.089Z,66.7029
2023-04-07T07:21:18.173Z,66.7455
2023-04-07T07:22:20.220Z,66.5192
2023-04-07T07:23:22.262Z,66.6254
2023-04-07T07:24:24.293Z,67.1488
2023-04-07T07:25:26.331Z,67.0707
2023-04-07T07:26:28.405Z,67.4072
2023-04-07T07:27:30.471Z,67.7281
2023-04-07T07:28:32.521Z,67.9630
2023-04-07T07:29:35.565Z,67.5834
2023-04-07T07:30:35.295Z,67.5792
2023-04-07T07:31:37.485Z,67.5164
2023-04-07T07:32:39.892Z,67.2860
2023-04-07T07:33:41.908Z,67.5937
2023-04-07T07:34:43.990Z,67.5672
2023-04-07T07:35:46.037Z,67.3570
2023-04-07T07:36:48.061Z,67.0780
2023-04-07T07:37:50.080Z,67.9507
2023-04-07T07:38:52.082Z,67.6227
2023-04-07T07:39:54.077Z,67.8583
2023-04-07T07:40:56.088Z,66.8087
2023-04-07T07:41:58.212Z,67.4169
2023-04-07T07:43:00.221Z,67.8463
2023-04-07T07:44:02.218Z,67.9523
2023-04-07T07:45:04.208Z,67.0525
2023-04-07T07:46:06.237Z,66.2245
2023-04-07T07:47:08.262Z,66.4737
2023-04-07T07:48:10.294Z,66.3558
2023-04-07T07:49:12.353Z,67.7086
2023-04-07T07:50:15.121Z,67.6227
2023-04-07T07:51:14.882Z,66.2821
2023-04-07T07:52:16.924Z,66.0929
2023-04-07T07:53:18.962Z,66.4568
2023-04-07T07:54:20.977Z,65.8576
2023-04-07T07:55:23.025Z,66.3500
2023-04-07T07:56:25.097Z,66.3109
2023-04-07T07:57:27.136Z,66.4775
2023-04-07T07:58:29.268Z,66.6112
2023-04-07T07:59:31.358Z,66.4252
2023-04-07T08:00:33.428Z,66.0958
2023-04-07T08:01:35.588Z,65.5084
2023-04-07T08:02:37.782Z,65.5193
2023-04-07T08:03:40.235Z,65.7457
2023-04-07T08:04:40.256Z,66.0624
2023-04-07T08:05:42.376Z,65.7356
2023-04-07T08:06:44.450Z,66.0392
2023-04-07T08:07:46.519Z,66.1019
2023-04-07T08:08:48.538Z,66.1036
2023-04-07T08:09:50.544Z,65.9902
2023-04-07T08:10:52.570Z,66.4782
2023-04-07T08:11:54.622Z,66.8475
2023-04-07T08:12:56.920Z,66.5774
2023-04-07T08:13:59.017Z,67.0747
2023-04-07T08:15:01.135Z,68.1600
2023-04-07T08:16:03.255Z,68.3968
2023-04-07T08:17:06.360Z,68.3085
2023-04-07T08:18:06.263Z,67.8662
2023-04-07T08:19:08.323Z,67.8179
2023-04-07T08:20:10.342Z,67.5039
2023-04-07T08:21:12.417Z,66.8601
2023-04-07T08:22:14.767Z,67.1754
2023-04-07T08:23:16.833Z,66.9333
2023-04-07T08:24:18.911Z,66.9559
2023-04-07T08:25:21.014Z,67.1579
2023-04-07T08:26:23.133Z,66.6454
2023-04-07T08:27:25.261Z,66.5432
2023-04-07T08:28:28.315Z,66.3203
2023-04-07T08:29:30.022Z,66.4189
2023-04-07T08:30:28.618Z,66.5285
2023-04-07T08:31:30.812Z,66.5765
2023-04-07T08:32:32.916Z,66.3778
2023-04-07T08:33:34.970Z,66.2855
2023-04-07T08:34:37.032Z,66.4776
2023-04-07T08:35:39.081Z,66.6984
2023-04-07T08:36:44.251Z,67.1042
2023-04-07T08:37:41.784Z,67.3754
2023-04-07T08:38:43.864Z,67.6599
2023-04-07T08:39:45.907Z,67.8626
2023-04-07T08:40:47.973Z,67.9822
2023-04-07T08:41:50.055Z,68.0633
2023-04-07T08:42:52.138Z,67.9972
2023-04-07T08:43:54.106Z,68.2435
2023-04-07T08:44:56.093Z,69.1122
2023-04-07T08:45:58.118Z,69.6962
2023-04-07T08:47:00.257Z,69.8336
2023-04-07T08:48:02.326Z,70.4517
2023-04-07T08:49:04.403Z,70.4560
2023-04-07T08:50:06.480Z,69.9696
2023-04-07T08:51:08.639Z,70.9960
2023-04-07T08:52:10.605Z,71.2431
2023-04-07T08:53:12.756Z,71.2006
2023-04-07T08:54:14.790Z,71.3599
2023-04-07T08:55:16.821Z,71.2274
2023-04-07T08:56:18.914Z,72.0796
2023-04-07T08:57:20.922Z,72.6117
2023-04-07T08:58:22.953Z,72.6004
2023-04-07T08:59:24.989Z,72.5459
2023-04-07T09:00:27.042Z,72.5906
2023-04-07T09:01:29.206Z,72.7645
2023-04-07T09:02:31.471Z,72.9846
2023-04-07T09:03:33.797Z,72.8113
2023-04-07T09:04:35.836Z,72.6333
2023-04-07T09:05:37.920Z,72.1995
2023-04-07T09:06:39.903Z,71.9305
2023-04-07T09:07:41.940Z,72.1431
2023-04-07T09:08:43.946Z,71.9595
2023-04-07T09:09:45.932Z,71.9191
2023-04-07T09:10:47.944Z,72.2572
2023-04-07T09:11:49.942Z,71.8675
2023-04-07T09:12:51.972Z,72.2247
2023-04-07T09:13:53.945Z,71.5485
2023-04-07T09:14:55.950Z,71.4511
2023-04-07T09:15:57.979Z,71.6089
2023-04-07T09:17:00.231Z,71.7803
2023-04-07T09:18:02.324Z,71.7597
2023-04-07T09:19:04.328Z,71.8441
2023-04-07T09:20:06.397Z,72.0116
2023-04-07T09:21:08.571Z,72.0722
2023-04-07T09:22:10.547Z,72.0641
2023-04-07T09:23:12.571Z,71.9978
2023-04-07T09:24:14.821Z,71.8455
2023-04-07T09:25:16.861Z,71.5332
2023-04-07T09:26:18.819Z,71.4401
2023-04-07T09:27:20.802Z,71.4477
2023-04-07T09:28:22.896Z,71.0626
2023-04-07T09:29:25.111Z,71.0543
2023-04-07T09:30:27.125Z,71.1779
2023-04-07T09:31:29.233Z,71.1556
2023-04-07T09:32:31.192Z,72.0185
2023-04-07T09:33:33.285Z,71.8925
2023-04-07T09:34:35.324Z,71.4354
2023-04-07T09:35:37.309Z,71.3550
2023-04-07T09:36:39.365Z,72.0239
2023-04-07T09:37:41.390Z,71.9376
2023-04-07T09:38:43.401Z,72.0801
2023-04-07T09:39:45.439Z,71.7517
2023-04-07T09:40:47.428Z,72.0026
2023-04-07T09:41:49.480Z,72.2716
2023-04-07T09:42:51.513Z,72.0648
2023-04-07T09:43:53.523Z,71.7043
2023-04-07T09:44:55.536Z,71.9931
2023-04-07T09:45:57.631Z,72.3299
2023-04-07T09:46:59.634Z,72.4220
2023-04-07T09:48:00.485Z,72.1347
2023-04-07T09:49:02.496Z,71.8906
2023-04-07T09:50:04.479Z,72.5392
2023-04-07T09:51:06.649Z,72.2788
2023-04-07T09:52:08.616Z,72.2700
2023-04-07T09:53:10.682Z,72.7248
2023-04-07T09:54:12.747Z,72.3472
2023-04-07T09:55:14.759Z,72.7275
2023-04-07T09:56:16.802Z,72.6499
2023-04-07T09:57:18.893Z,72.4451
2023-04-07T09:58:20.915Z,72.4966
2023-04-07T09:59:22.962Z,72.3540
2023-04-07T10:00:24.964Z,72.5462
2023-04-07T10:01:25.774Z,72.9118
2023-04-07T10:02:28.092Z,72.7245
2023-04-07T10:03:30.303Z,72.8987
2023-04-07T10:04:32.588Z,72.7406
2023-04-07T10:05:34.598Z,72.6203
2023-04-07T10:06:36.684Z,72.2894
2023-04-07T10:07:42.594Z,72.0635
2023-04-07T10:08:40.504Z,72.0976
2023-04-07T10:09:42.505Z,72.2265
2023-04-07T10:10:44.563Z,72.0798
2023-04-07T10:11:46.624Z,72.1563
2023-04-07T10:12:48.621Z,71.9666
2023-04-07T10:13:50.878Z,71.7145
2023-04-07T10:14:52.844Z,71.9939
2023-04-07T10:15:54.862Z,72.0637
2023-04-07T10:16:56.926Z,72.0675
2023-04-07T10:17:58.942Z,72.1628
2023-04-07T10:19:00.982Z,72.4454
2023-04-07T10:20:03.042Z,72.2949
2023-04-07T10:21:05.017Z,72.5346
2023-04-07T10:22:07.038Z,72.4189
2023-04-07T10:23:09.042Z,72.5366
2023-04-07T10:24:11.109Z,73.2139
2023-04-07T10:25:13.146Z,72.6715
2023-04-07T10:26:15.151Z,73.2924
2023-04-07T10:27:17.181Z,73.3184
2023-04-07T10:28:19.146Z,73.4757
2023-04-07T10:29:21.212Z,72.9922
2023-04-07T10:30:23.230Z,72.8497
2023-04-07T10:31:25.287Z,72.8766
2023-04-07T10:32:27.390Z,73.2232
2023-04-07T10:33:29.381Z,73.2717
2023-04-07T10:34:31.422Z,73.2031
2023-04-07T10:35:34.509Z,73.3184
2023-04-07T10:36:34.223Z,73.1150
2023-04-07T10:37:36.240Z,72.8362
2023-04-07T10:38:38.223Z,73.0281
2023-04-07T10:39:40.224Z,73.5469
2023-04-07T10:40:42.304Z,74.2466
2023-04-07T10:41:44.340Z,74.0985
2023-04-07T10:42:46.346Z,73.8871
2023-04-07T10:43:48.663Z,74.4135
2023-04-07T10:44:48.462Z,74.1090
2023-04-07T10:45:50.530Z,74.1793
2023-04-07T10:46:52.555Z,74.3170
2023-04-07T10:47:54.639Z,74.5671
2023-04-07T10:48:56.633Z,74.8083
2023-04-07T10:49:58.700Z,74.8153
2023-04-07T10:51:00.693Z,74.5975
2023-04-07T10:52:02.729Z,74.8259
2023-04-07T10:53:04.734Z,75.6419
2023-04-07T10:54:06.774Z,75.6564
2023-04-07T10:55:08.815Z,75.4165
2023-04-07T10:56:10.881Z,74.4578
2023-04-07T10:57:12.904Z,74.1327
2023-04-07T10:58:14.897Z,74.6004
2023-04-07T10:59:16.933Z,75.2559
2023-04-07T11:00:18.968Z,75.4119
2023-04-07T11:01:21.179Z,74.7354
2023-04-07T11:02:23.807Z,74.9250
2023-04-07T11:03:24.817Z,74.9916
2023-04-07T11:04:24.966Z,75.5726
2023-04-07T11:05:24.802Z,76.5319
2023-04-07T11:06:26.892Z,76.6831
2023-04-07T11:07:28.942Z,76.9983
2023-04-07T11:08:31.043Z,77.7926
2023-04-07T11:09:33.087Z,78.5594
2023-04-07T11:10:35.171Z,78.8642
2023-04-07T11:11:37.259Z,79.5326
2023-04-07T11:12:39.352Z,80.0379
2023-04-07T11:13:41.470Z,80.3390
2023-04-07T11:14:43.649Z,80.6824
2023-04-07T11:15:45.788Z,80.7736
2023-04-07T11:16:47.845Z,81.4412
2023-04-07T11:17:49.954Z,82.0568
2023-04-07T11:18:52.025Z,82.2754
2023-04-07T11:19:54.195Z,81.9030
2023-04-07T11:20:56.293Z,82.1683
2023-04-07T11:21:58.395Z,82.4666
2023-04-07T11:23:00.548Z,82.6496
2023-04-07T11:24:02.642Z,83.1105
2023-04-07T11:25:04.827Z,82.7837
2023-04-07T11:26:06.895Z,82.9530
2023-04-07T11:27:09.024Z,83.6093
2023-04-07T11:28:11.137Z,83.9440
2023-04-07T11:29:13.273Z,84.6901
2023-04-07T11:30:15.505Z,84.6814
2023-04-07T11:31:17.638Z,84.8414
2023-04-07T11:32:19.831Z,85.3925
2023-04-07T11:33:22.024Z,85.7173
2023-04-07T11:34:24.163Z,85.5845
2023-04-07T11:35:26.328Z,86.1139
2023-04-07T11:36:28.454Z,85.9421
2023-04-07T11:37:30.568Z,85.9663
2023-04-07T11:38:32.633Z,86.5315
2023-04-07T11:39:34.814Z,87.4536
2023-04-07T11:40:36.938Z,87.9194
2023-04-07T11:41:39.061Z,87.6638
2023-04-07T11:42:41.220Z,87.2982
2023-04-07T11:43:43.495Z,87.0412
2023-04-07T11:44:45.670Z,87.2749
2023-04-07T11:45:47.793Z,86.9419
2023-04-07T11:46:49.988Z,87.1461
2023-04-07T11:47:52.334Z,87.1501
2023-04-07T11:48:54.500Z,86.9883
2023-04-07T11:49:56.621Z,87.0110
2023-04-07T11:50:58.761Z,87.2752
2023-04-07T11:52:00.974Z,87.3928
2023-04-07T11:53:03.195Z,86.8841
2023-04-07T11:54:05.423Z,86.5976
2023-04-07T11:55:07.570Z,86.8675
2023-04-07T11:56:09.733Z,87.2371
2023-04-07T11:57:11.893Z,86.9933
2023-04-07T11:58:14.134Z,86.4890
2023-04-07T11:59:16.335Z,86.8613
2023-04-07T12:00:18.519Z,86.6892
2023-04-07T12:01:20.711Z,86.4512
2023-04-07T12:02:23.085Z,86.7188
2023-04-07T12:03:26.120Z,86.2869
2023-04-07T12:04:26.265Z,86.9956
2023-04-07T12:05:28.443Z,87.2155
2023-04-07T12:06:30.681Z,87.1661
2023-04-07T12:07:32.871Z,87.2246
2023-04-07T12:08:35.084Z,87.4746
2023-04-07T12:09:37.231Z,88.0116
2023-04-07T12:10:39.405Z,87.7181
2023-04-07T12:11:41.606Z,87.5897
2023-04-07T12:12:43.739Z,87.9016
2023-04-07T12:13:45.948Z,87.6443
2023-04-07T12:14:48.053Z,88.1511
2023-04-07T12:15:50.282Z,88.4385
2023-04-07T12:16:52.489Z,88.1405
2023-04-07T12:17:54.679Z,88.3042
2023-04-07T12:18:56.804Z,88.7035
2023-04-07T12:19:58.953Z,88.8195
2023-04-07T12:21:01.151Z,88.3238
2023-04-07T12:22:03.317Z,87.8376
2023-04-07T12:23:05.490Z,87.5451
2023-04-07T12:24:07.629Z,87.6044
2023-04-07T12:25:09.776Z,87.8036
2023-04-07T12:26:11.932Z,87.7511
2023-04-07T12:27:14.103Z,87.8111
2023-04-07T12:28:16.244Z,87.7879
2023-04-07T12:29:18.379Z,87.5666